sensor_id;sensor_type;location;lat;lon;timestamp;P1;durP1;ratioP1;P2;durP2;ratioP2
351;SDS011;164;50.784;6.496;2022-07-25T00:01:10;6.93;;;6.53;;
351;SDS011;164;50.784;6.496;2022-07-25T00:03:37;6.30;;;5.95;;
351;SDS011;164;50.784;6.496;2022-07-25T00:06:06;6.27;;;5.93;;
351;SDS011;164;50.784;6.496;2022-07-25T00:08:33;8.23;;;5.75;;
351;SDS011;164;50.784;6.496;2022-07-25T00:11:01;5.97;;;5.68;;
351;SDS011;164;50.784;6.496;2022-07-25T00:13:27;6.90;;;6.50;;
351;SDS011;164;50.784;6.496;2022-07-25T00:15:54;6.50;;;6.10;;
351;SDS011;164;50.784;6.496;2022-07-25T00:18:21;7.60;;;6.15;;
351;SDS011;164;50.784;6.496;2022-07-25T00:20:48;6.05;;;5.75;;
351;SDS011;164;50.784;6.496;2022-07-25T00:23:17;5.93;;;5.63;;
351;SDS011;164;50.784;6.496;2022-07-25T00:25:44;6.87;;;6.47;;
351;SDS011;164;50.784;6.496;2022-07-25T00:28:11;5.53;;;5.25;;
351;SDS011;164;50.784;6.496;2022-07-25T00:30:38;5.97;;;5.57;;
351;SDS011;164;50.784;6.496;2022-07-25T00:33:04;6.40;;;6.00;;
351;SDS011;164;50.784;6.496;2022-07-25T00:35:31;6.25;;;5.93;;
351;SDS011;164;50.784;6.496;2022-07-25T00:37:58;7.35;;;6.95;;
351;SDS011;164;50.784;6.496;2022-07-25T00:40:27;6.40;;;6.00;;
351;SDS011;164;50.784;6.496;2022-07-25T00:42:54;5.75;;;5.45;;
351;SDS011;164;50.784;6.496;2022-07-25T00:45:21;6.90;;;6.50;;
351;SDS011;164;50.784;6.496;2022-07-25T00:47:48;6.45;;;6.05;;
351;SDS011;164;50.784;6.496;2022-07-25T00:50:15;5.95;;;5.70;;
351;SDS011;164;50.784;6.496;2022-07-25T00:52:42;6.22;;;5.90;;
351;SDS011;164;50.784;6.496;2022-07-25T00:55:10;5.88;;;5.63;;
351;SDS011;164;50.784;6.496;2022-07-25T00:57:39;5.95;;;5.65;;
351;SDS011;164;50.784;6.496;2022-07-25T01:00:07;6.05;;;5.75;;
351;SDS011;164;50.784;6.496;2022-07-25T01:02:38;5.97;;;5.68;;
351;SDS011;164;50.784;6.496;2022-07-25T01:05:06;5.60;;;5.30;;
351;SDS011;164;50.784;6.496;2022-07-25T01:07:34;6.07;;;5.75;;
351;SDS011;164;50.784;6.496;2022-07-25T01:10:05;5.50;;;5.20;;
351;SDS011;164;50.784;6.496;2022-07-25T01:12:43;6.90;;;6.50;;
351;SDS011;164;50.784;6.496;2022-07-25T01:15:14;5.57;;;5.28;;
351;SDS011;164;50.784;6.496;2022-07-25T01:17:41;6.05;;;5.65;;
351;SDS011;164;50.784;6.496;2022-07-25T01:20:13;5.63;;;5.32;;
351;SDS011;164;50.784;6.496;2022-07-25T01:22:40;5.85;;;5.55;;
351;SDS011;164;50.784;6.496;2022-07-25T01:25:08;6.53;;;6.13;;
351;SDS011;164;50.784;6.496;2022-07-25T01:27:35;6.07;;;5.78;;
351;SDS011;164;50.784;6.496;2022-07-25T01:30:03;5.60;;;5.17;;
351;SDS011;164;50.784;6.496;2022-07-25T01:32:31;5.93;;;5.63;;
351;SDS011;164;50.784;6.496;2022-07-25T01:34:58;6.50;;;6.10;;
351;SDS011;164;50.784;6.496;2022-07-25T01:37:26;5.38;;;5.07;;
351;SDS011;164;50.784;6.496;2022-07-25T01:39:53;6.30;;;5.95;;
351;SDS011;164;50.784;6.496;2022-07-25T01:42:20;6.68;;;6.03;;
351;SDS011;164;50.784;6.496;2022-07-25T01:44:47;5.80;;;5.50;;
351;SDS011;164;50.784;6.496;2022-07-25T01:47:14;5.88;;;5.57;;
351;SDS011;164;50.784;6.496;2022-07-25T01:49:42;6.93;;;6.53;;
351;SDS011;164;50.784;6.496;2022-07-25T01:52:09;6.10;;;5.80;;
351;SDS011;164;50.784;6.496;2022-07-25T01:54:37;5.78;;;5.47;;
351;SDS011;164;50.784;6.496;2022-07-25T01:57:04;6.43;;;6.03;;
351;SDS011;164;50.784;6.496;2022-07-25T01:59:32;5.95;;;5.65;;
351;SDS011;164;50.784;6.496;2022-07-25T02:02:02;6.27;;;5.93;;
351;SDS011;164;50.784;6.496;2022-07-25T02:04:28;5.80;;;5.50;;
351;SDS011;164;50.784;6.496;2022-07-25T02:06:55;5.97;;;5.68;;
351;SDS011;164;50.784;6.496;2022-07-25T02:09:22;6.00;;;5.70;;
351;SDS011;164;50.784;6.496;2022-07-25T02:11:51;6.22;;;5.78;;
351;SDS011;164;50.784;6.496;2022-07-25T02:14:18;6.97;;;6.57;;
351;SDS011;164;50.784;6.496;2022-07-25T02:16:45;5.90;;;5.60;;
351;SDS011;164;50.784;6.496;2022-07-25T02:19:12;6.80;;;6.40;;
351;SDS011;164;50.784;6.496;2022-07-25T02:21:39;5.95;;;5.65;;
351;SDS011;164;50.784;6.496;2022-07-25T02:24:06;5.85;;;5.55;;
351;SDS011;164;50.784;6.496;2022-07-25T02:26:33;5.95;;;5.60;;
351;SDS011;164;50.784;6.496;2022-07-25T02:29:02;5.35;;;5.05;;
351;SDS011;164;50.784;6.496;2022-07-25T02:31:29;6.40;;;5.63;;
351;SDS011;164;50.784;6.496;2022-07-25T02:33:56;6.82;;;6.43;;
351;SDS011;164;50.784;6.496;2022-07-25T02:36:22;5.72;;;5.43;;
351;SDS011;164;50.784;6.496;2022-07-25T02:38:49;6.30;;;5.95;;
351;SDS011;164;50.784;6.496;2022-07-25T02:41:16;6.13;;;5.82;;
351;SDS011;164;50.784;6.496;2022-07-25T02:43:43;6.32;;;5.88;;
351;SDS011;164;50.784;6.496;2022-07-25T02:46:12;7.78;;;6.30;;
351;SDS011;164;50.784;6.496;2022-07-25T02:48:39;6.57;;;6.18;;
351;SDS011;164;50.784;6.496;2022-07-25T02:51:06;6.45;;;6.05;;
351;SDS011;164;50.784;6.496;2022-07-25T02:53:33;6.57;;;6.18;;
351;SDS011;164;50.784;6.496;2022-07-25T02:56:00;8.13;;;6.18;;
351;SDS011;164;50.784;6.496;2022-07-25T02:58:27;6.32;;;5.97;;
351;SDS011;164;50.784;6.496;2022-07-25T03:00:54;6.35;;;5.97;;
351;SDS011;164;50.784;6.496;2022-07-25T03:03:22;6.57;;;5.60;;
351;SDS011;164;50.784;6.496;2022-07-25T03:05:49;5.90;;;5.60;;
351;SDS011;164;50.784;6.496;2022-07-25T03:08:16;6.50;;;6.10;;
351;SDS011;164;50.784;6.496;2022-07-25T03:10:43;6.07;;;5.78;;
351;SDS011;164;50.784;6.496;2022-07-25T03:13:10;5.75;;;5.45;;
351;SDS011;164;50.784;6.496;2022-07-25T03:15:37;5.93;;;5.63;;
351;SDS011;164;50.784;6.496;2022-07-25T03:18:04;6.70;;;6.30;;
351;SDS011;164;50.784;6.496;2022-07-25T03:20:33;5.90;;;5.45;;
351;SDS011;164;50.784;6.496;2022-07-25T03:23:00;6.03;;;5.72;;
351;SDS011;164;50.784;6.496;2022-07-25T03:25:27;6.70;;;6.30;;
351;SDS011;164;50.784;6.496;2022-07-25T03:27:54;5.88;;;5.57;;
351;SDS011;164;50.784;6.496;2022-07-25T03:30:21;6.50;;;6.10;;
351;SDS011;164;50.784;6.496;2022-07-25T03:32:48;5.20;;;4.90;;
351;SDS011;164;50.784;6.496;2022-07-25T03:35:15;6.45;;;6.07;;
351;SDS011;164;50.784;6.496;2022-07-25T03:37:43;5.93;;;5.63;;
351;SDS011;164;50.784;6.496;2022-07-25T03:40:11;6.07;;;5.78;;
351;SDS011;164;50.784;6.496;2022-07-25T03:42:39;5.60;;;5.30;;
351;SDS011;164;50.784;6.496;2022-07-25T03:45:07;5.50;;;5.20;;
351;SDS011;164;50.784;6.496;2022-07-25T03:53:33;6.10;;;5.80;;
351;SDS011;164;50.784;6.496;2022-07-25T03:56:21;6.20;;;5.90;;
351;SDS011;164;50.784;6.496;2022-07-25T03:58:48;5.18;;;4.88;;
351;SDS011;164;50.784;6.496;2022-07-25T04:01:14;5.78;;;5.47;;
351;SDS011;164;50.784;6.496;2022-07-25T04:03:42;5.97;;;5.68;;
351;SDS011;164;50.784;6.496;2022-07-25T04:06:09;6.38;;;5.25;;
351;SDS011;164;50.784;6.496;2022-07-25T04:08:37;5.75;;;5.45;;
351;SDS011;164;50.784;6.496;2022-07-25T04:11:04;6.22;;;5.90;;
351;SDS011;164;50.784;6.496;2022-07-25T04:13:31;6.18;;;5.82;;
351;SDS011;164;50.784;6.496;2022-07-25T04:15:59;5.63;;;5.32;;
351;SDS011;164;50.784;6.496;2022-07-25T04:18:26;5.47;;;5.18;;
351;SDS011;164;50.784;6.496;2022-07-25T04:20:53;5.95;;;5.65;;
351;SDS011;164;50.784;6.496;2022-07-25T04:23:20;6.47;;;5.93;;
351;SDS011;164;50.784;6.496;2022-07-25T04:25:48;6.55;;;6.15;;
351;SDS011;164;50.784;6.496;2022-07-25T04:28:15;6.22;;;5.90;;
351;SDS011;164;50.784;6.496;2022-07-25T04:30:42;6.05;;;5.75;;
351;SDS011;164;50.784;6.496;2022-07-25T04:33:10;6.38;;;5.60;;
351;SDS011;164;50.784;6.496;2022-07-25T04:35:39;6.03;;;5.50;;
351;SDS011;164;50.784;6.496;2022-07-25T04:38:06;6.43;;;6.00;;
351;SDS011;164;50.784;6.496;2022-07-25T04:40:33;6.07;;;5.78;;
351;SDS011;164;50.784;6.496;2022-07-25T04:43:02;6.75;;;5.63;;
351;SDS011;164;50.784;6.496;2022-07-25T04:45:33;6.00;;;5.70;;
351;SDS011;164;50.784;6.496;2022-07-25T04:48:00;5.40;;;5.05;;
351;SDS011;164;50.784;6.496;2022-07-25T04:50:28;5.17;;;4.87;;
351;SDS011;164;50.784;6.496;2022-07-25T04:52:55;4.30;;;4.00;;
351;SDS011;164;50.784;6.496;2022-07-25T04:55:22;9.13;;;5.23;;
351;SDS011;164;50.784;6.496;2022-07-25T04:57:50;6.03;;;5.72;;
351;SDS011;164;50.784;6.496;2022-07-25T05:00:19;5.90;;;5.60;;
351;SDS011;164;50.784;6.496;2022-07-25T05:02:47;5.47;;;5.17;;
351;SDS011;164;50.784;6.496;2022-07-25T05:05:15;6.03;;;5.73;;
351;SDS011;164;50.784;6.496;2022-07-25T05:07:45;6.45;;;5.40;;
351;SDS011;164;50.784;6.496;2022-07-25T05:10:12;5.23;;;4.93;;
351;SDS011;164;50.784;6.496;2022-07-25T05:12:39;6.00;;;5.70;;
351;SDS011;164;50.784;6.496;2022-07-25T05:15:07;5.47;;;5.17;;
351;SDS011;164;50.784;6.496;2022-07-25T05:17:36;7.13;;;5.60;;
351;SDS011;164;50.784;6.496;2022-07-25T05:20:03;5.40;;;5.10;;
351;SDS011;164;50.784;6.496;2022-07-25T05:22:31;6.40;;;6.00;;
351;SDS011;164;50.784;6.496;2022-07-25T05:24:58;6.63;;;5.60;;
351;SDS011;164;50.784;6.496;2022-07-25T05:27:28;5.83;;;5.53;;
351;SDS011;164;50.784;6.496;2022-07-25T05:29:55;6.60;;;6.20;;
351;SDS011;164;50.784;6.496;2022-07-25T05:32:21;6.23;;;5.93;;
351;SDS011;164;50.784;6.496;2022-07-25T05:34:50;6.03;;;5.63;;
351;SDS011;164;50.784;6.496;2022-07-25T05:37:18;6.60;;;6.20;;
351;SDS011;164;50.784;6.496;2022-07-25T05:39:45;6.17;;;5.87;;
351;SDS011;164;50.784;6.496;2022-07-25T05:42:12;5.57;;;5.27;;
351;SDS011;164;50.784;6.496;2022-07-25T05:44:40;6.10;;;5.80;;
351;SDS011;164;50.784;6.496;2022-07-25T05:47:07;6.07;;;5.77;;
351;SDS011;164;50.784;6.496;2022-07-25T05:49:35;5.90;;;5.60;;
351;SDS011;164;50.784;6.496;2022-07-25T05:52:06;6.20;;;5.10;;
351;SDS011;164;50.784;6.496;2022-07-25T05:54:33;6.27;;;5.93;;
351;SDS011;164;50.784;6.496;2022-07-25T05:57:00;6.00;;;5.70;;
351;SDS011;164;50.784;6.496;2022-07-25T05:59:27;5.40;;;5.10;;
351;SDS011;164;50.784;6.496;2022-07-25T06:01:55;6.40;;;5.97;;
351;SDS011;164;50.784;6.496;2022-07-25T06:04:22;5.80;;;5.53;;
351;SDS011;164;50.784;6.496;2022-07-25T06:06:49;5.90;;;5.60;;
351;SDS011;164;50.784;6.496;2022-07-25T06:09:18;5.60;;;5.30;;
351;SDS011;164;50.784;6.496;2022-07-25T06:11:47;4.53;;;4.23;;
351;SDS011;164;50.784;6.496;2022-07-25T06:14:14;6.10;;;5.80;;
351;SDS011;164;50.784;6.496;2022-07-25T06:16:42;5.40;;;5.10;;
351;SDS011;164;50.784;6.496;2022-07-25T06:19:09;6.20;;;5.90;;
351;SDS011;164;50.784;6.496;2022-07-25T06:21:36;5.83;;;5.47;;
351;SDS011;164;50.784;6.496;2022-07-25T06:24:03;6.10;;;5.80;;
351;SDS011;164;50.784;6.496;2022-07-25T06:26:32;7.57;;;6.60;;
351;SDS011;164;50.784;6.496;2022-07-25T06:28:59;7.63;;;6.70;;
351;SDS011;164;50.784;6.496;2022-07-25T06:31:26;7.87;;;6.53;;
351;SDS011;164;50.784;6.496;2022-07-25T06:33:53;7.43;;;6.33;;
351;SDS011;164;50.784;6.496;2022-07-25T06:36:20;5.80;;;5.50;;
351;SDS011;164;50.784;6.496;2022-07-25T06:38:47;6.97;;;6.57;;
351;SDS011;164;50.784;6.496;2022-07-25T06:41:15;7.13;;;6.73;;
351;SDS011;164;50.784;6.496;2022-07-25T06:43:44;6.93;;;6.53;;
351;SDS011;164;50.784;6.496;2022-07-25T06:46:11;6.40;;;6.03;;
351;SDS011;164;50.784;6.496;2022-07-25T06:48:38;7.03;;;6.63;;
351;SDS011;164;50.784;6.496;2022-07-25T06:51:06;6.47;;;6.07;;
351;SDS011;164;50.784;6.496;2022-07-25T06:53:33;6.43;;;6.03;;
351;SDS011;164;50.784;6.496;2022-07-25T06:56:00;6.27;;;5.93;;
351;SDS011;164;50.784;6.496;2022-07-25T06:58:34;6.00;;;5.70;;
351;SDS011;164;50.784;6.496;2022-07-25T07:01:03;5.63;;;5.33;;
351;SDS011;164;50.784;6.496;2022-07-25T07:03:30;6.97;;;6.57;;
351;SDS011;164;50.784;6.496;2022-07-25T07:06:02;6.90;;;6.50;;
351;SDS011;164;50.784;6.496;2022-07-25T07:08:29;5.90;;;5.60;;
351;SDS011;164;50.784;6.496;2022-07-25T07:10:56;7.33;;;6.97;;
351;SDS011;164;50.784;6.496;2022-07-25T07:13:23;12.17;;;8.77;;
351;SDS011;164;50.784;6.496;2022-07-25T07:15:50;9.27;;;7.03;;
351;SDS011;164;50.784;6.496;2022-07-25T07:18:19;5.60;;;5.30;;
351;SDS011;164;50.784;6.496;2022-07-25T07:20:46;6.60;;;6.20;;
351;SDS011;164;50.784;6.496;2022-07-25T07:23:14;6.80;;;6.40;;
351;SDS011;164;50.784;6.496;2022-07-25T07:25:41;6.40;;;6.00;;
351;SDS011;164;50.784;6.496;2022-07-25T07:28:08;6.57;;;6.17;;
351;SDS011;164;50.784;6.496;2022-07-25T07:30:35;5.90;;;5.60;;
351;SDS011;164;50.784;6.496;2022-07-25T07:33:02;6.27;;;5.33;;
351;SDS011;164;50.784;6.496;2022-07-25T07:35:30;5.80;;;5.50;;
351;SDS011;164;50.784;6.496;2022-07-25T07:37:57;6.50;;;5.93;;
351;SDS011;164;50.784;6.496;2022-07-25T07:40:24;6.70;;;6.30;;
351;SDS011;164;50.784;6.496;2022-07-25T07:42:52;6.60;;;6.20;;
351;SDS011;164;50.784;6.496;2022-07-25T07:45:22;6.77;;;6.37;;
351;SDS011;164;50.784;6.496;2022-07-25T07:47:50;6.47;;;6.07;;
351;SDS011;164;50.784;6.496;2022-07-25T07:50:19;6.40;;;6.00;;
351;SDS011;164;50.784;6.496;2022-07-25T07:52:49;7.40;;;7.00;;
351;SDS011;164;50.784;6.496;2022-07-25T07:55:17;6.53;;;6.13;;
351;SDS011;164;50.784;6.496;2022-07-25T07:58:01;6.00;;;5.70;;
351;SDS011;164;50.784;6.496;2022-07-25T08:00:29;7.13;;;6.70;;
351;SDS011;164;50.784;6.496;2022-07-25T08:02:58;5.70;;;5.40;;
351;SDS011;164;50.784;6.496;2022-07-25T08:05:25;7.00;;;6.00;;
351;SDS011;164;50.784;6.496;2022-07-25T08:07:58;12.00;;;9.40;;
351;SDS011;164;50.784;6.496;2022-07-25T08:10:26;7.07;;;6.67;;
351;SDS011;164;50.784;6.496;2022-07-25T08:12:54;8.10;;;6.80;;
351;SDS011;164;50.784;6.496;2022-07-25T08:15:22;9.53;;;7.47;;
351;SDS011;164;50.784;6.496;2022-07-25T08:17:50;7.97;;;6.13;;
351;SDS011;164;50.784;6.496;2022-07-25T08:20:18;7.77;;;5.43;;
351;SDS011;164;50.784;6.496;2022-07-25T08:22:48;6.57;;;6.17;;
351;SDS011;164;50.784;6.496;2022-07-25T08:25:18;6.63;;;6.23;;
351;SDS011;164;50.784;6.496;2022-07-25T08:27:46;7.20;;;6.80;;
351;SDS011;164;50.784;6.496;2022-07-25T08:30:14;9.97;;;7.60;;
351;SDS011;164;50.784;6.496;2022-07-25T08:32:52;6.60;;;6.10;;
351;SDS011;164;50.784;6.496;2022-07-25T08:35:21;6.60;;;6.20;;
351;SDS011;164;50.784;6.496;2022-07-25T08:37:49;6.20;;;5.90;;
351;SDS011;164;50.784;6.496;2022-07-25T08:40:19;5.93;;;5.63;;
351;SDS011;164;50.784;6.496;2022-07-25T08:42:48;6.80;;;6.40;;
351;SDS011;164;50.784;6.496;2022-07-25T08:45:17;7.00;;;6.60;;
351;SDS011;164;50.784;6.496;2022-07-25T08:47:45;6.63;;;6.27;;
351;SDS011;164;50.784;6.496;2022-07-25T08:50:13;7.00;;;6.60;;
351;SDS011;164;50.784;6.496;2022-07-25T08:52:41;6.63;;;6.23;;
351;SDS011;164;50.784;6.496;2022-07-25T08:55:09;9.03;;;8.53;;
351;SDS011;164;50.784;6.496;2022-07-25T08:57:42;6.83;;;6.43;;
351;SDS011;164;50.784;6.496;2022-07-25T09:00:11;7.33;;;6.93;;
351;SDS011;164;50.784;6.496;2022-07-25T09:02:41;7.23;;;6.83;;
351;SDS011;164;50.784;6.496;2022-07-25T09:05:08;6.90;;;6.50;;
351;SDS011;164;50.784;6.496;2022-07-25T09:07:36;6.27;;;5.93;;
351;SDS011;164;50.784;6.496;2022-07-25T09:10:10;6.00;;;5.70;;
351;SDS011;164;50.784;6.496;2022-07-25T09:12:39;6.23;;;5.90;;
351;SDS011;164;50.784;6.496;2022-07-25T09:15:08;6.97;;;6.60;;
351;SDS011;164;50.784;6.496;2022-07-25T09:17:35;7.37;;;6.90;;
351;SDS011;164;50.784;6.496;2022-07-25T09:20:03;7.83;;;6.67;;
351;SDS011;164;50.784;6.496;2022-07-25T09:22:44;6.80;;;6.40;;
351;SDS011;164;50.784;6.496;2022-07-25T09:28:07;6.40;;;6.00;;
351;SDS011;164;50.784;6.496;2022-07-25T09:30:39;7.30;;;6.90;;
351;SDS011;164;50.784;6.496;2022-07-25T09:33:18;6.80;;;6.40;;
351;SDS011;164;50.784;6.496;2022-07-25T09:35:46;7.00;;;6.60;;
351;SDS011;164;50.784;6.496;2022-07-25T09:38:14;7.03;;;6.63;;
351;SDS011;164;50.784;6.496;2022-07-25T09:40:51;7.00;;;6.60;;
351;SDS011;164;50.784;6.496;2022-07-25T09:43:19;6.60;;;6.20;;
351;SDS011;164;50.784;6.496;2022-07-25T09:45:51;6.93;;;6.53;;
351;SDS011;164;50.784;6.496;2022-07-25T09:48:18;7.93;;;6.90;;
351;SDS011;164;50.784;6.496;2022-07-25T09:50:46;7.70;;;7.30;;
351;SDS011;164;50.784;6.496;2022-07-25T09:53:13;6.60;;;6.20;;
351;SDS011;164;50.784;6.496;2022-07-25T09:55:40;6.70;;;6.30;;
351;SDS011;164;50.784;6.496;2022-07-25T09:58:08;6.93;;;6.50;;
351;SDS011;164;50.784;6.496;2022-07-25T10:00:35;7.43;;;6.70;;
351;SDS011;164;50.784;6.496;2022-07-25T10:03:14;6.90;;;6.50;;
351;SDS011;164;50.784;6.496;2022-07-25T10:05:48;7.03;;;6.63;;
351;SDS011;164;50.784;6.496;2022-07-25T10:08:23;7.30;;;6.90;;
351;SDS011;164;50.784;6.496;2022-07-25T10:10:51;7.40;;;7.00;;
351;SDS011;164;50.784;6.496;2022-07-25T10:13:27;8.10;;;7.70;;
351;SDS011;164;50.784;6.496;2022-07-25T10:15:55;7.30;;;6.90;;
351;SDS011;164;50.784;6.496;2022-07-25T10:18:24;9.30;;;7.60;;
351;SDS011;164;50.784;6.496;2022-07-25T10:20:53;8.60;;;7.43;;
351;SDS011;164;50.784;6.496;2022-07-25T10:23:22;7.20;;;6.80;;
351;SDS011;164;50.784;6.496;2022-07-25T10:26:01;8.03;;;7.23;;
351;SDS011;164;50.784;6.496;2022-07-25T10:28:37;7.90;;;7.50;;
351;SDS011;164;50.784;6.496;2022-07-25T10:31:16;7.67;;;7.27;;
351;SDS011;164;50.784;6.496;2022-07-25T10:33:48;7.40;;;7.00;;
351;SDS011;164;50.784;6.496;2022-07-25T10:36:17;6.90;;;6.50;;
351;SDS011;164;50.784;6.496;2022-07-25T10:38:45;6.83;;;6.43;;
351;SDS011;164;50.784;6.496;2022-07-25T10:41:14;5.60;;;5.30;;
351;SDS011;164;50.784;6.496;2022-07-25T10:43:43;6.90;;;6.50;;
351;SDS011;164;50.784;6.496;2022-07-25T10:46:12;8.40;;;7.60;;
351;SDS011;164;50.784;6.496;2022-07-25T10:48:40;11.17;;;6.63;;
351;SDS011;164;50.784;6.496;2022-07-25T10:51:09;6.27;;;5.93;;
351;SDS011;164;50.784;6.496;2022-07-25T10:53:38;5.93;;;5.63;;
351;SDS011;164;50.784;6.496;2022-07-25T10:56:12;7.53;;;6.30;;
351;SDS011;164;50.784;6.496;2022-07-25T10:58:40;6.50;;;6.10;;
351;SDS011;164;50.784;6.496;2022-07-25T11:01:09;6.10;;;5.80;;
351;SDS011;164;50.784;6.496;2022-07-25T11:03:38;5.77;;;5.30;;
351;SDS011;164;50.784;6.496;2022-07-25T11:06:06;5.60;;;5.30;;
351;SDS011;164;50.784;6.496;2022-07-25T11:08:35;5.77;;;5.20;;
351;SDS011;164;50.784;6.496;2022-07-25T11:11:02;5.13;;;4.83;;
351;SDS011;164;50.784;6.496;2022-07-25T11:13:30;5.50;;;4.70;;
351;SDS011;164;50.784;6.496;2022-07-25T11:16:02;4.97;;;4.67;;
351;SDS011;164;50.784;6.496;2022-07-25T11:18:30;5.13;;;4.83;;
351;SDS011;164;50.784;6.496;2022-07-25T11:21:00;5.17;;;4.87;;
351;SDS011;164;50.784;6.496;2022-07-25T11:23:28;4.43;;;4.13;;
351;SDS011;164;50.784;6.496;2022-07-25T11:26:09;4.60;;;4.30;;
351;SDS011;164;50.784;6.496;2022-07-25T11:28:41;4.70;;;4.40;;
351;SDS011;164;50.784;6.496;2022-07-25T11:31:09;5.20;;;4.90;;
351;SDS011;164;50.784;6.496;2022-07-25T11:33:38;4.60;;;4.20;;
351;SDS011;164;50.784;6.496;2022-07-25T11:36:06;5.00;;;4.70;;
351;SDS011;164;50.784;6.496;2022-07-25T11:38:35;6.87;;;5.33;;
351;SDS011;164;50.784;6.496;2022-07-25T11:41:03;4.73;;;4.30;;
351;SDS011;164;50.784;6.496;2022-07-25T11:43:31;4.90;;;4.63;;
351;SDS011;164;50.784;6.496;2022-07-25T11:45:59;5.60;;;5.30;;
351;SDS011;164;50.784;6.496;2022-07-25T11:48:29;5.33;;;5.03;;
351;SDS011;164;50.784;6.496;2022-07-25T11:51:06;5.37;;;5.07;;
351;SDS011;164;50.784;6.496;2022-07-25T11:53:39;6.10;;;5.80;;
351;SDS011;164;50.784;6.496;2022-07-25T11:56:14;7.10;;;4.93;;
351;SDS011;164;50.784;6.496;2022-07-25T11:58:48;6.57;;;5.20;;
351;SDS011;164;50.784;6.496;2022-07-25T12:01:22;4.37;;;4.07;;
351;SDS011;164;50.784;6.496;2022-07-25T12:03:50;5.43;;;5.13;;
351;SDS011;164;50.784;6.496;2022-07-25T12:06:18;5.77;;;5.10;;
351;SDS011;164;50.784;6.496;2022-07-25T12:08:45;4.93;;;4.63;;
351;SDS011;164;50.784;6.496;2022-07-25T12:11:15;5.70;;;4.53;;
351;SDS011;164;50.784;6.496;2022-07-25T12:13:50;5.70;;;4.47;;
351;SDS011;164;50.784;6.496;2022-07-25T12:16:31;4.93;;;4.57;;
351;SDS011;164;50.784;6.496;2022-07-25T12:18:58;4.90;;;4.23;;
351;SDS011;164;50.784;6.496;2022-07-25T12:21:31;3.83;;;3.67;;
351;SDS011;164;50.784;6.496;2022-07-25T12:23:58;3.60;;;3.40;;
351;SDS011;164;50.784;6.496;2022-07-25T12:26:25;5.40;;;2.90;;
351;SDS011;164;50.784;6.496;2022-07-25T12:29:00;3.17;;;3.00;;
351;SDS011;164;50.784;6.496;2022-07-25T12:31:27;4.70;;;3.20;;
351;SDS011;164;50.784;6.496;2022-07-25T12:33:58;6.00;;;3.30;;
351;SDS011;164;50.784;6.496;2022-07-25T12:36:25;2.97;;;2.70;;
351;SDS011;164;50.784;6.496;2022-07-25T12:38:52;6.93;;;2.90;;
351;SDS011;164;50.784;6.496;2022-07-25T12:41:21;3.33;;;3.13;;
351;SDS011;164;50.784;6.496;2022-07-25T12:43:49;2.90;;;2.70;;
351;SDS011;164;50.784;6.496;2022-07-25T12:46:18;2.63;;;2.50;;
351;SDS011;164;50.784;6.496;2022-07-25T12:48:45;3.57;;;3.37;;
351;SDS011;164;50.784;6.496;2022-07-25T12:51:13;3.10;;;2.20;;
351;SDS011;164;50.784;6.496;2022-07-25T12:53:40;4.30;;;3.30;;
351;SDS011;164;50.784;6.496;2022-07-25T12:56:08;4.30;;;2.90;;
351;SDS011;164;50.784;6.496;2022-07-25T12:58:37;2.87;;;2.67;;
351;SDS011;164;50.784;6.496;2022-07-25T13:01:07;3.50;;;2.60;;
351;SDS011;164;50.784;6.496;2022-07-25T13:03:41;2.80;;;2.60;;
351;SDS011;164;50.784;6.496;2022-07-25T13:06:08;5.33;;;2.43;;
351;SDS011;164;50.784;6.496;2022-07-25T13:08:35;7.50;;;2.40;;
351;SDS011;164;50.784;6.496;2022-07-25T13:11:03;6.03;;;3.03;;
351;SDS011;164;50.784;6.496;2022-07-25T13:13:32;4.77;;;2.53;;
351;SDS011;164;50.784;6.496;2022-07-25T13:16:00;5.37;;;2.43;;
351;SDS011;164;50.784;6.496;2022-07-25T13:18:27;2.83;;;2.17;;
351;SDS011;164;50.784;6.496;2022-07-25T13:21:04;3.10;;;2.00;;
351;SDS011;164;50.784;6.496;2022-07-25T13:23:32;2.80;;;2.50;;
351;SDS011;164;50.784;6.496;2022-07-25T13:25:59;3.30;;;2.13;;
351;SDS011;164;50.784;6.496;2022-07-25T13:28:32;3.53;;;1.80;;
351;SDS011;164;50.784;6.496;2022-07-25T13:30:59;2.50;;;2.20;;
351;SDS011;164;50.784;6.496;2022-07-25T13:33:31;2.57;;;2.03;;
351;SDS011;164;50.784;6.496;2022-07-25T13:36:03;2.30;;;1.93;;
351;SDS011;164;50.784;6.496;2022-07-25T13:38:40;2.10;;;2.00;;
351;SDS011;164;50.784;6.496;2022-07-25T13:41:08;2.07;;;1.93;;
351;SDS011;164;50.784;6.496;2022-07-25T13:43:39;3.23;;;2.07;;
351;SDS011;164;50.784;6.496;2022-07-25T13:46:12;4.60;;;3.07;;
351;SDS011;164;50.784;6.496;2022-07-25T13:48:47;3.53;;;2.47;;
351;SDS011;164;50.784;6.496;2022-07-25T13:51:23;3.07;;;2.33;;
351;SDS011;164;50.784;6.496;2022-07-25T13:53:53;2.73;;;2.17;;
351;SDS011;164;50.784;6.496;2022-07-25T13:56:23;4.63;;;2.40;;
351;SDS011;164;50.784;6.496;2022-07-25T13:58:55;5.53;;;2.57;;
351;SDS011;164;50.784;6.496;2022-07-25T14:01:44;2.50;;;1.80;;
351;SDS011;164;50.784;6.496;2022-07-25T14:04:21;3.70;;;2.33;;
351;SDS011;164;50.784;6.496;2022-07-25T14:06:49;2.53;;;2.07;;
351;SDS011;164;50.784;6.496;2022-07-25T14:09:17;3.30;;;2.30;;
351;SDS011;164;50.784;6.496;2022-07-25T14:12:07;3.20;;;2.07;;
351;SDS011;164;50.784;6.496;2022-07-25T14:14:38;4.03;;;2.30;;
351;SDS011;164;50.784;6.496;2022-07-25T14:17:10;4.17;;;2.87;;
351;SDS011;164;50.784;6.496;2022-07-25T14:19:38;2.90;;;1.90;;
351;SDS011;164;50.784;6.496;2022-07-25T14:22:12;16.97;;;2.90;;
351;SDS011;164;50.784;6.496;2022-07-25T14:24:50;2.33;;;2.20;;
351;SDS011;164;50.784;6.496;2022-07-25T14:27:17;5.07;;;2.60;;
351;SDS011;164;50.784;6.496;2022-07-25T14:29:46;3.60;;;2.93;;
351;SDS011;164;50.784;6.496;2022-07-25T14:32:25;3.83;;;2.40;;
351;SDS011;164;50.784;6.496;2022-07-25T14:34:54;3.10;;;1.93;;
351;SDS011;164;50.784;6.496;2022-07-25T14:37:26;2.53;;;2.40;;
351;SDS011;164;50.784;6.496;2022-07-25T14:39:55;4.43;;;2.60;;
351;SDS011;164;50.784;6.496;2022-07-25T14:42:23;3.87;;;2.90;;
351;SDS011;164;50.784;6.496;2022-07-25T14:44:50;6.10;;;2.63;;
351;SDS011;164;50.784;6.496;2022-07-25T14:47:17;5.50;;;3.00;;
351;SDS011;164;50.784;6.496;2022-07-25T14:49:45;4.30;;;2.33;;
351;SDS011;164;50.784;6.496;2022-07-25T14:52:12;4.53;;;2.90;;
351;SDS011;164;50.784;6.496;2022-07-25T14:54:42;5.10;;;2.57;;
351;SDS011;164;50.784;6.496;2022-07-25T14:57:26;5.60;;;3.23;;
351;SDS011;164;50.784;6.496;2022-07-25T14:59:55;3.50;;;2.30;;
351;SDS011;164;50.784;6.496;2022-07-25T15:02:26;4.50;;;2.73;;
351;SDS011;164;50.784;6.496;2022-07-25T15:04:53;3.27;;;2.60;;
351;SDS011;164;50.784;6.496;2022-07-25T15:07:22;3.00;;;2.42;;
351;SDS011;164;50.784;6.496;2022-07-25T15:09:53;4.30;;;2.13;;
351;SDS011;164;50.784;6.496;2022-07-25T15:12:29;4.88;;;2.47;;
351;SDS011;164;50.784;6.496;2022-07-25T15:15:09;4.20;;;3.08;;
351;SDS011;164;50.784;6.496;2022-07-25T15:17:50;5.47;;;2.50;;
351;SDS011;164;50.784;6.496;2022-07-25T15:20:40;12.23;;;2.75;;
351;SDS011;164;50.784;6.496;2022-07-25T15:23:07;2.88;;;2.20;;
351;SDS011;164;50.784;6.496;2022-07-25T15:25:39;6.35;;;2.35;;
351;SDS011;164;50.784;6.496;2022-07-25T15:28:21;3.88;;;2.10;;
351;SDS011;164;50.784;6.496;2022-07-25T15:30:48;4.63;;;2.20;;
351;SDS011;164;50.784;6.496;2022-07-25T15:33:16;4.15;;;2.10;;
351;SDS011;164;50.784;6.496;2022-07-25T15:35:57;3.53;;;2.60;;
351;SDS011;164;50.784;6.496;2022-07-25T15:38:27;5.57;;;2.67;;
351;SDS011;164;50.784;6.496;2022-07-25T15:40:57;5.47;;;2.80;;
351;SDS011;164;50.784;6.496;2022-07-25T15:43:26;7.03;;;2.80;;
351;SDS011;164;50.784;6.496;2022-07-25T15:45:58;3.93;;;1.97;;
351;SDS011;164;50.784;6.496;2022-07-25T15:48:28;2.80;;;2.50;;
351;SDS011;164;50.784;6.496;2022-07-25T15:51:02;6.93;;;2.40;;
351;SDS011;164;50.784;6.496;2022-07-25T15:53:33;3.50;;;2.30;;
351;SDS011;164;50.784;6.496;2022-07-25T15:56:16;3.63;;;2.30;;
351;SDS011;164;50.784;6.496;2022-07-25T15:58:46;2.30;;;1.70;;
351;SDS011;164;50.784;6.496;2022-07-25T16:01:16;7.57;;;2.27;;
351;SDS011;164;50.784;6.496;2022-07-25T16:03:52;4.20;;;1.97;;
351;SDS011;164;50.784;6.496;2022-07-25T16:06:26;4.83;;;2.23;;